sensor_id;sensor_type;location;lat;lon;timestamp;temperature;humidity
78886;DHT22;68269;52.514;5.722;2023-07-30T00:01:08;18.20;65.80
78886;DHT22;68269;52.514;5.722;2023-07-30T00:03:37;18.20;65.80
78886;DHT22;68269;52.514;5.722;2023-07-30T00:06:07;18.20;65.80
78886;DHT22;68269;52.514;5.722;2023-07-30T00:08:36;18.20;65.80
78886;DHT22;68269;52.514;5.722;2023-07-30T00:11:05;18.10;65.80
78886;DHT22;68269;52.514;5.722;2023-07-30T00:13:34;18.10;65.80
78886;DHT22;68269;52.514;5.722;2023-07-30T00:16:04;18.10;65.80
78886;DHT22;68269;52.514;5.722;2023-07-30T00:18:36;18.10;65.90
78886;DHT22;68269;52.514;5.722;2023-07-30T00:21:05;18.00;65.90
78886;DHT22;68269;52.514;5.722;2023-07-30T00:23:34;18.10;65.90
78886;DHT22;68269;52.514;5.722;2023-07-30T00:26:04;18.00;65.90
78886;DHT22;68269;52.514;5.722;2023-07-30T00:28:33;18.00;65.90
78886;DHT22;68269;52.514;5.722;2023-07-30T00:31:02;18.00;65.90
78886;DHT22;68269;52.514;5.722;2023-07-30T00:33:32;18.00;66.00
78886;DHT22;68269;52.514;5.722;2023-07-30T00:36:06;18.00;66.00
78886;DHT22;68269;52.514;5.722;2023-07-30T00:38:35;17.90;66.10
78886;DHT22;68269;52.514;5.722;2023-07-30T00:41:04;17.90;66.10
78886;DHT22;68269;52.514;5.722;2023-07-30T00:43:34;17.80;66.10
78886;DHT22;68269;52.514;5.722;2023-07-30T00:46:03;17.80;66.10
78886;DHT22;68269;52.514;5.722;2023-07-30T00:48:32;17.80;66.10
78886;DHT22;68269;52.514;5.722;2023-07-30T00:51:05;17.80;66.20
78886;DHT22;68269;52.514;5.722;2023-07-30T00:53:35;17.80;66.20
78886;DHT22;68269;52.514;5.722;2023-07-30T00:56:05;17.80;66.10
78886;DHT22;68269;52.514;5.722;2023-07-30T00:58:35;17.80;66.20
78886;DHT22;68269;52.514;5.722;2023-07-30T01:01:05;17.80;66.20
78886;DHT22;68269;52.514;5.722;2023-07-30T01:03:35;17.80;66.20
78886;DHT22;68269;52.514;5.722;2023-07-30T01:06:07;17.70;66.20
78886;DHT22;68269;52.514;5.722;2023-07-30T01:08:36;17.70;66.30
78886;DHT22;68269;52.514;5.722;2023-07-30T01:11:05;17.70;66.30
78886;DHT22;68269;52.514;5.722;2023-07-30T01:13:36;17.70;66.40
78886;DHT22;68269;52.514;5.722;2023-07-30T01:16:07;17.70;66.30
78886;DHT22;68269;52.514;5.722;2023-07-30T01:18:36;17.70;66.40
78886;DHT22;68269;52.514;5.722;2023-07-30T01:21:08;17.70;66.40
78886;DHT22;68269;52.514;5.722;2023-07-30T01:23:38;17.70;66.40
78886;DHT22;68269;52.514;5.722;2023-07-30T01:26:10;17.70;66.40
78886;DHT22;68269;52.514;5.722;2023-07-30T01:28:46;17.70;66.40
78886;DHT22;68269;52.514;5.722;2023-07-30T01:31:16;17.70;66.40
78886;DHT22;68269;52.514;5.722;2023-07-30T01:33:48;17.70;66.50
78886;DHT22;68269;52.514;5.722;2023-07-30T01:36:22;17.70;66.50
78886;DHT22;68269;52.514;5.722;2023-07-30T01:38:53;17.70;66.40
78886;DHT22;68269;52.514;5.722;2023-07-30T01:41:23;17.70;66.50
78886;DHT22;68269;52.514;5.722;2023-07-30T01:43:54;17.60;66.50
78886;DHT22;68269;52.514;5.722;2023-07-30T01:46:23;17.60;66.50
78886;DHT22;68269;52.514;5.722;2023-07-30T01:48:53;17.60;66.50
78886;DHT22;68269;52.514;5.722;2023-07-30T01:51:25;17.60;66.60
78886;DHT22;68269;52.514;5.722;2023-07-30T01:53:54;17.60;66.60
78886;DHT22;68269;52.514;5.722;2023-07-30T01:56:23;17.60;66.60
78886;DHT22;68269;52.514;5.722;2023-07-30T01:58:52;17.60;66.60
78886;DHT22;68269;52.514;5.722;2023-07-30T02:01:22;17.60;66.60
78886;DHT22;68269;52.514;5.722;2023-07-30T02:03:51;17.60;66.60
78886;DHT22;68269;52.514;5.722;2023-07-30T02:06:20;17.60;66.70
78886;DHT22;68269;52.514;5.722;2023-07-30T02:08:52;17.50;66.70
78886;DHT22;68269;52.514;5.722;2023-07-30T02:11:22;17.50;66.70
78886;DHT22;68269;52.514;5.722;2023-07-30T02:13:51;17.50;66.80
78886;DHT22;68269;52.514;5.722;2023-07-30T02:16:20;17.50;66.70
78886;DHT22;68269;52.514;5.722;2023-07-30T02:18:50;17.50;66.80
78886;DHT22;68269;52.514;5.722;2023-07-30T02:21:19;17.50;66.80
78886;DHT22;68269;52.514;5.722;2023-07-30T02:23:48;17.50;66.80
78886;DHT22;68269;52.514;5.722;2023-07-30T02:26:20;17.50;66.80
78886;DHT22;68269;52.514;5.722;2023-07-30T02:28:49;17.50;66.90
78886;DHT22;68269;52.514;5.722;2023-07-30T02:31:19;17.50;66.90
78886;DHT22;68269;52.514;5.722;2023-07-30T02:33:48;17.50;66.90
78886;DHT22;68269;52.514;5.722;2023-07-30T02:36:17;17.50;67.00
78886;DHT22;68269;52.514;5.722;2023-07-30T02:38:46;17.50;67.00
78886;DHT22;68269;52.514;5.722;2023-07-30T02:41:16;17.50;67.00
78886;DHT22;68269;52.514;5.722;2023-07-30T02:43:48;17.50;67.00
78886;DHT22;68269;52.514;5.722;2023-07-30T02:46:17;17.50;67.10
78886;DHT22;68269;52.514;5.722;2023-07-30T02:48:47;17.50;67.10
78886;DHT22;68269;52.514;5.722;2023-07-30T02:51:16;17.50;67.10
78886;DHT22;68269;52.514;5.722;2023-07-30T02:53:45;17.50;67.20
78886;DHT22;68269;52.514;5.722;2023-07-30T02:56:15;17.50;67.20
78886;DHT22;68269;52.514;5.722;2023-07-30T02:58:44;17.50;67.20
78886;DHT22;68269;52.514;5.722;2023-07-30T03:01:16;17.50;67.10
78886;DHT22;68269;52.514;5.722;2023-07-30T03:03:45;17.50;67.20
78886;DHT22;68269;52.514;5.722;2023-07-30T03:06:14;17.50;67.20
78886;DHT22;68269;52.514;5.722;2023-07-30T03:08:44;17.50;67.20
78886;DHT22;68269;52.514;5.722;2023-07-30T03:11:13;17.50;67.20
78886;DHT22;68269;52.514;5.722;2023-07-30T03:13:43;17.50;67.30
78886;DHT22;68269;52.514;5.722;2023-07-30T03:16:15;17.50;67.40
78886;DHT22;68269;52.514;5.722;2023-07-30T03:18:44;17.50;67.50
78886;DHT22;68269;52.514;5.722;2023-07-30T03:21:13;17.50;67.40
78886;DHT22;68269;52.514;5.722;2023-07-30T03:23:43;17.50;67.50
78886;DHT22;68269;52.514;5.722;2023-07-30T03:26:14;17.50;67.50
78886;DHT22;68269;52.514;5.722;2023-07-30T03:28:43;17.50;67.50
78886;DHT22;68269;52.514;5.722;2023-07-30T03:31:15;17.60;67.50
78886;DHT22;68269;52.514;5.722;2023-07-30T03:33:45;17.60;67.60
78886;DHT22;68269;52.514;5.722;2023-07-30T03:36:14;17.60;67.60
78886;DHT22;68269;52.514;5.722;2023-07-30T03:38:43;17.50;67.60
78886;DHT22;68269;52.514;5.722;2023-07-30T03:41:13;17.50;67.70
78886;DHT22;68269;52.514;5.722;2023-07-30T03:43:42;17.50;67.80
78886;DHT22;68269;52.514;5.722;2023-07-30T03:46:12;17.50;67.90
78886;DHT22;68269;52.514;5.722;2023-07-30T03:48:44;17.50;67.80
78886;DHT22;68269;52.514;5.722;2023-07-30T03:51:13;17.50;67.90
78886;DHT22;68269;52.514;5.722;2023-07-30T03:53:43;17.50;67.90
78886;DHT22;68269;52.514;5.722;2023-07-30T03:56:12;17.50;67.90
78886;DHT22;68269;52.514;5.722;2023-07-30T03:58:41;17.50;67.90
78886;DHT22;68269;52.514;5.722;2023-07-30T04:01:11;17.50;67.90
78886;DHT22;68269;52.514;5.722;2023-07-30T04:03:43;17.50;68.00
78886;DHT22;68269;52.514;5.722;2023-07-30T04:06:12;17.50;68.00
78886;DHT22;68269;52.514;5.722;2023-07-30T04:08:42;17.50;68.10
78886;DHT22;68269;52.514;5.722;2023-07-30T04:11:12;17.50;68.10
78886;DHT22;68269;52.514;5.722;2023-07-30T04:13:42;17.40;68.20
78886;DHT22;68269;52.514;5.722;2023-07-30T04:16:11;17.50;68.20
78886;DHT22;68269;52.514;5.722;2023-07-30T04:18:43;17.40;68.20
78886;DHT22;68269;52.514;5.722;2023-07-30T04:21:12;17.40;68.20
78886;DHT22;68269;52.514;5.722;2023-07-30T04:23:41;17.40;68.20
78886;DHT22;68269;52.514;5.722;2023-07-30T04:26:11;17.50;68.20
78886;DHT22;68269;52.514;5.722;2023-07-30T04:28:40;17.50;68.20
78886;DHT22;68269;52.514;5.722;2023-07-30T04:31:09;17.50;68.20
78886;DHT22;68269;52.514;5.722;2023-07-30T04:33:39;17.50;68.20
78886;DHT22;68269;52.514;5.722;2023-07-30T04:36:11;17.50;68.20
78886;DHT22;68269;52.514;5.722;2023-07-30T04:38:40;17.50;68.30
78886;DHT22;68269;52.514;5.722;2023-07-30T04:41:09;17.50;68.40
78886;DHT22;68269;52.514;5.722;2023-07-30T04:43:46;17.50;68.40
78886;DHT22;68269;52.514;5.722;2023-07-30T04:46:15;17.50;68.40
78886;DHT22;68269;52.514;5.722;2023-07-30T04:48:44;17.50;68.50
78886;DHT22;68269;52.514;5.722;2023-07-30T04:51:19;17.50;68.50
78886;DHT22;68269;52.514;5.722;2023-07-30T04:53:49;17.50;68.60
78886;DHT22;68269;52.514;5.722;2023-07-30T04:56:18;17.50;68.60
78886;DHT22;68269;52.514;5.722;2023-07-30T04:58:47;17.50;68.60
78886;DHT22;68269;52.514;5.722;2023-07-30T05:01:16;17.50;68.60
78886;DHT22;68269;52.514;5.722;2023-07-30T05:03:46;17.50;68.70
78886;DHT22;68269;52.514;5.722;2023-07-30T05:06:15;17.50;68.70
78886;DHT22;68269;52.514;5.722;2023-07-30T05:08:47;17.50;68.70
78886;DHT22;68269;52.514;5.722;2023-07-30T05:11:16;17.50;68.80
78886;DHT22;68269;52.514;5.722;2023-07-30T05:13:45;17.50;68.80
78886;DHT22;68269;52.514;5.722;2023-07-30T05:16:15;17.50;68.80
78886;DHT22;68269;52.514;5.722;2023-07-30T05:18:45;17.50;68.80
78886;DHT22;68269;52.514;5.722;2023-07-30T05:21:14;17.50;68.80
78886;DHT22;68269;52.514;5.722;2023-07-30T05:23:43;17.50;68.90
78886;DHT22;68269;52.514;5.722;2023-07-30T05:26:15;17.50;68.90
78886;DHT22;68269;52.514;5.722;2023-07-30T05:28:45;17.50;68.90
78886;DHT22;68269;52.514;5.722;2023-07-30T05:31:14;17.60;68.90
78886;DHT22;68269;52.514;5.722;2023-07-30T05:33:43;17.50;68.90
78886;DHT22;68269;52.514;5.722;2023-07-30T05:36:12;17.60;68.90
78886;DHT22;68269;52.514;5.722;2023-07-30T05:38:42;17.60;69.00
78886;DHT22;68269;52.514;5.722;2023-07-30T05:41:11;17.60;68.90
78886;DHT22;68269;52.514;5.722;2023-07-30T05:43:43;17.60;68.90
78886;DHT22;68269;52.514;5.722;2023-07-30T05:46:12;17.60;69.00
78886;DHT22;68269;52.514;5.722;2023-07-30T05:48:41;17.60;69.00
78886;DHT22;68269;52.514;5.722;2023-07-30T05:51:11;17.60;69.00
78886;DHT22;68269;52.514;5.722;2023-07-30T05:53:40;17.70;69.00
78886;DHT22;68269;52.514;5.722;2023-07-30T05:56:09;17.70;69.00
78886;DHT22;68269;52.514;5.722;2023-07-30T05:58:43;17.70;69.00
78886;DHT22;68269;52.514;5.722;2023-07-30T06:01:12;17.80;69.00
78886;DHT22;68269;52.514;5.722;2023-07-30T06:03:41;17.80;69.00
78886;DHT22;68269;52.514;5.722;2023-07-30T06:06:10;17.80;69.00
78886;DHT22;68269;52.514;5.722;2023-07-30T06:08:40;17.80;69.00
78886;DHT22;68269;52.514;5.722;2023-07-30T06:11:09;17.90;69.00
78886;DHT22;68269;52.514;5.722;2023-07-30T06:13:38;17.90;69.00
78886;DHT22;68269;52.514;5.722;2023-07-30T06:16:10;17.90;69.10
78886;DHT22;68269;52.514;5.722;2023-07-30T06:18:40;18.00;69.10
78886;DHT22;68269;52.514;5.722;2023-07-30T06:21:09;18.00;69.10
78886;DHT22;68269;52.514;5.722;2023-07-30T06:23:38;18.00;69.10
78886;DHT22;68269;52.514;5.722;2023-07-30T06:26:08;18.00;69.10
78886;DHT22;68269;52.514;5.722;2023-07-30T06:28:37;18.00;69.10
78886;DHT22;68269;52.514;5.722;2023-07-30T06:31:06;18.00;69.10
78886;DHT22;68269;52.514;5.722;2023-07-30T06:33:38;18.00;69.10
78886;DHT22;68269;52.514;5.722;2023-07-30T06:36:07;18.00;69.20
78886;DHT22;68269;52.514;5.722;2023-07-30T06:38:37;18.00;69.20
78886;DHT22;68269;52.514;5.722;2023-07-30T06:41:06;18.00;69.20
78886;DHT22;68269;52.514;5.722;2023-07-30T06:43:35;18.00;69.20
78886;DHT22;68269;52.514;5.722;2023-07-30T06:46:05;18.10;69.20
78886;DHT22;68269;52.514;5.722;2023-07-30T06:48:34;18.10;69.10
78886;DHT22;68269;52.514;5.722;2023-07-30T06:51:09;18.10;69.20
78886;DHT22;68269;52.514;5.722;2023-07-30T06:53:39;18.10;69.20
78886;DHT22;68269;52.514;5.722;2023-07-30T06:56:08;18.10;69.20
78886;DHT22;68269;52.514;5.722;2023-07-30T06:58:37;18.10;69.20
78886;DHT22;68269;52.514;5.722;2023-07-30T07:01:07;18.10;69.20
78886;DHT22;68269;52.514;5.722;2023-07-30T07:03:36;18.20;69.20
78886;DHT22;68269;52.514;5.722;2023-07-30T07:06:08;18.20;69.10
78886;DHT22;68269;52.514;5.722;2023-07-30T07:08:37;18.20;69.20
78886;DHT22;68269;52.514;5.722;2023-07-30T07:11:07;18.20;69.20
78886;DHT22;68269;52.514;5.722;2023-07-30T07:13:36;18.20;69.20
78886;DHT22;68269;52.514;5.722;2023-07-30T07:16:05;18.20;69.20
78886;DHT22;68269;52.514;5.722;2023-07-30T07:18:35;18.20;69.20
78886;DHT22;68269;52.514;5.722;2023-07-30T07:21:07;18.30;69.20
78886;DHT22;68269;52.514;5.722;2023-07-30T07:23:36;18.30;69.20
78886;DHT22;68269;52.514;5.722;2023-07-30T07:26:06;18.30;69.10
78886;DHT22;68269;52.514;5.722;2023-07-30T07:28:35;18.30;69.00
78886;DHT22;68269;52.514;5.722;2023-07-30T07:31:04;18.40;69.00
78886;DHT22;68269;52.514;5.722;2023-07-30T07:33:33;18.50;68.90
78886;DHT22;68269;52.514;5.722;2023-07-30T07:36:07;18.60;68.80
78886;DHT22;68269;52.514;5.722;2023-07-30T07:38:36;18.70;68.70
78886;DHT22;68269;52.514;5.722;2023-07-30T07:41:06;18.80;68.60
78886;DHT22;68269;52.514;5.722;2023-07-30T07:43:35;18.90;68.60
78886;DHT22;68269;52.514;5.722;2023-07-30T07:46:04;18.90;68.60
78886;DHT22;68269;52.514;5.722;2023-07-30T07:48:40;18.90;68.60
78886;DHT22;68269;52.514;5.722;2023-07-30T07:51:12;18.90;68.50
78886;DHT22;68269;52.514;5.722;2023-07-30T07:53:41;18.80;68.60
78886;DHT22;68269;52.514;5.722;2023-07-30T07:56:10;18.80;68.60
78886;DHT22;68269;52.514;5.722;2023-07-30T07:58:40;18.80;68.70
78886;DHT22;68269;52.514;5.722;2023-07-30T08:01:09;18.80;68.70
78886;DHT22;68269;52.514;5.722;2023-07-30T08:03:38;18.80;68.70
78886;DHT22;68269;52.514;5.722;2023-07-30T08:06:07;18.80;68.70
78886;DHT22;68269;52.514;5.722;2023-07-30T08:08:39;18.70;68.70
78886;DHT22;68269;52.514;5.722;2023-07-30T08:11:09;18.70;68.80
78886;DHT22;68269;52.514;5.722;2023-07-30T08:13:38;18.60;68.90
78886;DHT22;68269;52.514;5.722;2023-07-30T08:16:08;18.60;68.80
78886;DHT22;68269;52.514;5.722;2023-07-30T08:18:37;18.60;68.90
78886;DHT22;68269;52.514;5.722;2023-07-30T08:21:06;18.60;68.80
78886;DHT22;68269;52.514;5.722;2023-07-30T08:23:36;18.70;68.70
78886;DHT22;68269;52.514;5.722;2023-07-30T08:26:08;18.70;68.70
78886;DHT22;68269;52.514;5.722;2023-07-30T08:28:37;18.80;68.60
78886;DHT22;68269;52.514;5.722;2023-07-30T08:31:06;18.80;68.50
78886;DHT22;68269;52.514;5.722;2023-07-30T08:33:35;18.90;68.40
78886;DHT22;68269;52.514;5.722;2023-07-30T08:36:05;19.00;68.30
78886;DHT22;68269;52.514;5.722;2023-07-30T08:38:34;19.00;68.20
78886;DHT22;68269;52.514;5.722;2023-07-30T08:41:03;19.00;68.20
78886;DHT22;68269;52.514;5.722;2023-07-30T08:43:35;19.00;68.10
78886;DHT22;68269;52.514;5.722;2023-07-30T08:46:04;19.00;68.20
78886;DHT22;68269;52.514;5.722;2023-07-30T08:48:34;19.00;68.10
78886;DHT22;68269;52.514;5.722;2023-07-30T08:51:03;19.00;68.00
78886;DHT22;68269;52.514;5.722;2023-07-30T08:53:32;18.90;68.00
78886;DHT22;68269;52.514;5.722;2023-07-30T08:56:03;18.90;68.00
78886;DHT22;68269;52.514;5.722;2023-07-30T08:58:36;18.90;68.00
78886;DHT22;68269;52.514;5.722;2023-07-30T09:01:08;18.90;68.10
78886;DHT22;68269;52.514;5.722;2023-07-30T09:03:39;18.80;68.10
78886;DHT22;68269;52.514;5.722;2023-07-30T09:06:09;18.90;68.00
78886;DHT22;68269;52.514;5.722;2023-07-30T09:08:38;19.00;67.90
78886;DHT22;68269;52.514;5.722;2023-07-30T09:11:08;19.10;67.80
78886;DHT22;68269;52.514;5.722;2023-07-30T09:13:41;19.20;67.70
78886;DHT22;68269;52.514;5.722;2023-07-30T09:16:11;19.30;67.60
78886;DHT22;68269;52.514;5.722;2023-07-30T09:18:41;19.40;67.50
78886;DHT22;68269;52.514;5.722;2023-07-30T09:21:10;19.50;67.30
78886;DHT22;68269;52.514;5.722;2023-07-30T09:23:41;19.70;67.10
78886;DHT22;68269;52.514;5.722;2023-07-30T09:26:11;19.70;67.00
78886;DHT22;68269;52.514;5.722;2023-07-30T09:28:43;19.70;67.00
78886;DHT22;68269;52.514;5.722;2023-07-30T09:31:12;19.70;67.00
78886;DHT22;68269;52.514;5.722;2023-07-30T09:33:42;19.60;67.00
78886;DHT22;68269;52.514;5.722;2023-07-30T09:36:11;19.50;66.90
78886;DHT22;68269;52.514;5.722;2023-07-30T09:38:41;19.60;66.70
78886;DHT22;68269;52.514;5.722;2023-07-30T09:41:12;19.70;66.40
78886;DHT22;68269;52.514;5.722;2023-07-30T09:43:45;19.70;66.20
78886;DHT22;68269;52.514;5.722;2023-07-30T09:46:14;19.90;66.00
78886;DHT22;68269;52.514;5.722;2023-07-30T09:48:43;19.90;65.80
78886;DHT22;68269;52.514;5.722;2023-07-30T09:51:13;20.00;65.70
78886;DHT22;68269;52.514;5.722;2023-07-30T09:53:43;20.00;65.60
78886;DHT22;68269;52.514;5.722;2023-07-30T09:56:13;20.00;65.50
78886;DHT22;68269;52.514;5.722;2023-07-30T09:58:45;20.00;65.40
78886;DHT22;68269;52.514;5.722;2023-07-30T10:01:14;19.90;65.40
78886;DHT22;68269;52.514;5.722;2023-07-30T10:03:44;19.80;65.50
78886;DHT22;68269;52.514;5.722;2023-07-30T10:06:13;19.70;65.60
78886;DHT22;68269;52.514;5.722;2023-07-30T10:08:44;19.60;65.60
78886;DHT22;68269;52.514;5.722;2023-07-30T10:11:14;19.60;65.70
78886;DHT22;68269;52.514;5.722;2023-07-30T10:13:47;19.70;65.50
78886;DHT22;68269;52.514;5.722;2023-07-30T10:16:16;19.80;65.30
78886;DHT22;68269;52.514;5.722;2023-07-30T10:18:46;20.00;65.00
78886;DHT22;68269;52.514;5.722;2023-07-30T10:21:22;20.00;64.90
78886;DHT22;68269;52.514;5.722;2023-07-30T10:23:58;20.10;64.70
78886;DHT22;68269;52.514;5.722;2023-07-30T10:26:29;20.30;64.50
78886;DHT22;68269;52.514;5.722;2023-07-30T10:29:22;20.40;64.40
78886;DHT22;68269;52.514;5.722;2023-07-30T10:31:53;20.50;64.00
78886;DHT22;68269;52.514;5.722;2023-07-30T10:34:26;20.50;64.00
78886;DHT22;68269;52.514;5.722;2023-07-30T10:36:56;20.60;63.90
78886;DHT22;68269;52.514;5.722;2023-07-30T10:39:27;20.80;63.70
78886;DHT22;68269;52.514;5.722;2023-07-30T10:41:57;21.00;63.30
78886;DHT22;68269;52.514;5.722;2023-07-30T10:44:31;21.00;63.30
78886;DHT22;68269;52.514;5.722;2023-07-30T10:47:02;21.00;63.20
78886;DHT22;68269;52.514;5.722;2023-07-30T10:49:36;21.10;63.20
78886;DHT22;68269;52.514;5.722;2023-07-30T10:52:07;21.10;63.00
78886;DHT22;68269;52.514;5.722;2023-07-30T10:54:37;21.30;62.90
78886;DHT22;68269;52.514;5.722;2023-07-30T10:57:06;21.30;62.80
78886;DHT22;68269;52.514;5.722;2023-07-30T10:59:38;21.30;62.80
78886;DHT22;68269;52.514;5.722;2023-07-30T11:02:08;21.30;62.80
78886;DHT22;68269;52.514;5.722;2023-07-30T11:04:38;21.50;62.60
78886;DHT22;68269;52.514;5.722;2023-07-30T11:07:07;21.50;62.40
78886;DHT22;68269;52.514;5.722;2023-07-30T11:09:37;21.50;62.30
78886;DHT22;68269;52.514;5.722;2023-07-30T11:12:09;21.30;62.50
78886;DHT22;68269;52.514;5.722;2023-07-30T11:14:42;21.10;62.60
78886;DHT22;68269;52.514;5.722;2023-07-30T11:17:11;21.00;62.70
78886;DHT22;68269;52.514;5.722;2023-07-30T11:19:46;21.00;62.60
78886;DHT22;68269;52.514;5.722;2023-07-30T11:22:16;21.00;62.50
78886;DHT22;68269;52.514;5.722;2023-07-30T11:24:45;21.00;62.40
78886;DHT22;68269;52.514;5.722;2023-07-30T11:27:14;20.90;62.40
78886;DHT22;68269;52.514;5.722;2023-07-30T11:29:54;20.90;62.40
78886;DHT22;68269;52.514;5.722;2023-07-30T11:32:23;20.90;62.30
78886;DHT22;68269;52.514;5.722;2023-07-30T11:34:53;20.90;62.20
78886;DHT22;68269;52.514;5.722;2023-07-30T11:37:23;21.00;62.10
78886;DHT22;68269;52.514;5.722;2023-07-30T11:39:52;21.00;62.00
78886;DHT22;68269;52.514;5.722;2023-07-30T11:42:22;21.10;61.80
78886;DHT22;68269;52.514;5.722;2023-07-30T11:44:54;21.20;61.60
78886;DHT22;68269;52.514;5.722;2023-07-30T11:47:23;21.40;61.40
78886;DHT22;68269;52.514;5.722;2023-07-30T11:49:55;21.60;61.20
78886;DHT22;68269;52.514;5.722;2023-07-30T11:52:25;21.70;61.00
78886;DHT22;68269;52.514;5.722;2023-07-30T11:55:00;21.60;61.00
78886;DHT22;68269;52.514;5.722;2023-07-30T11:57:34;21.50;61.00
78886;DHT22;68269;52.514;5.722;2023-07-30T12:00:07;21.50;61.10
78886;DHT22;68269;52.514;5.722;2023-07-30T12:02:40;21.40;61.10
78886;DHT22;68269;52.514;5.722;2023-07-30T12:05:10;21.30;61.30
78886;DHT22;68269;52.514;5.722;2023-07-30T12:07:41;21.30;61.30
78886;DHT22;68269;52.514;5.722;2023-07-30T12:10:12;21.20;61.30
78886;DHT22;68269;52.514;5.722;2023-07-30T12:12:44;21.10;61.30
78886;DHT22;68269;52.514;5.722;2023-07-30T12:15:16;21.10;61.30
78886;DHT22;68269;52.514;5.722;2023-07-30T12:17:45;21.10;61.30
78886;DHT22;68269;52.514;5.722;2023-07-30T12:20:15;21.20;61.20
78886;DHT22;68269;52.514;5.722;2023-07-30T12:22:44;21.30;61.10
78886;DHT22;68269;52.514;5.722;2023-07-30T12:25:14;21.40;61.00
78886;DHT22;68269;52.514;5.722;2023-07-30T12:27:43;21.50;60.80
78886;DHT22;68269;52.514;5.722;2023-07-30T12:30:13;21.50;60.80
78886;DHT22;68269;52.514;5.722;2023-07-30T12:32:45;21.50;60.70
78886;DHT22;68269;52.514;5.722;2023-07-30T12:35:14;21.50;60.60
78886;DHT22;68269;52.514;5.722;2023-07-30T12:37:43;21.80;60.30
78886;DHT22;68269;52.514;5.722;2023-07-30T12:40:13;22.00;60.00
78886;DHT22;68269;52.514;5.722;2023-07-30T12:42:42;22.00;60.00
78886;DHT22;68269;52.514;5.722;2023-07-30T12:45:11;22.10;60.00
78886;DHT22;68269;52.514;5.722;2023-07-30T12:47:41;22.00;60.00
78886;DHT22;68269;52.514;5.722;2023-07-30T12:50:14;22.00;60.00
78886;DHT22;68269;52.514;5.722;2023-07-30T12:52:43;22.00;60.00
78886;DHT22;68269;52.514;5.722;2023-07-30T12:55:13;21.90;60.10
78886;DHT22;68269;52.514;5.722;2023-07-30T12:57:42;22.10;60.00
78886;DHT22;68269;52.514;5.722;2023-07-30T13:00:12;22.40;59.70
78886;DHT22;68269;52.514;5.722;2023-07-30T13:02:41;22.60;59.50
78886;DHT22;68269;52.514;5.722;2023-07-30T13:05:11;22.50;59.60
78886;DHT22;68269;52.514;5.722;2023-07-30T13:07:44;22.50;59.60
78886;DHT22;68269;52.514;5.722;2023-07-30T13:10:14;22.30;59.70
78886;DHT22;68269;52.514;5.722;2023-07-30T13:12:43;22.30;59.70
78886;DHT22;68269;52.514;5.722;2023-07-30T13:15:12;22.10;59.80
78886;DHT22;68269;52.514;5.722;2023-07-30T13:17:42;21.90;59.80
78886;DHT22;68269;52.514;5.722;2023-07-30T13:20:11;21.90;59.90
78886;DHT22;68269;52.514;5.722;2023-07-30T13:22:40;21.70;59.90
78886;DHT22;68269;52.514;5.722;2023-07-30T13:25:13;21.60;60.00
78886;DHT22;68269;52.514;5.722;2023-07-30T13:27:42;21.50;60.00
78886;DHT22;68269;52.514;5.722;2023-07-30T13:30:11;21.40;60.10
78886;DHT22;68269;52.514;5.722;2023-07-30T13:32:41;21.30;60.10
78886;DHT22;68269;52.514;5.722;2023-07-30T13:35:10;21.20;60.20
78886;DHT22;68269;52.514;5.722;2023-07-30T13:37:39;21.20;60.20
78886;DHT22;68269;52.514;5.722;2023-07-30T13:40:12;21.20;60.10
78886;DHT22;68269;52.514;5.722;2023-07-30T13:42:41;21.10;60.00
78886;DHT22;68269;52.514;5.722;2023-07-30T13:45:11;21.10;60.00
78886;DHT22;68269;52.514;5.722;2023-07-30T13:47:40;21.10;60.10
78886;DHT22;68269;52.514;5.722;2023-07-30T13:50:10;21.30;60.00
78886;DHT22;68269;52.514;5.722;2023-07-30T13:52:43;21.50;59.70
78886;DHT22;68269;52.514;5.722;2023-07-30T13:55:15;21.50;59.60
78886;DHT22;68269;52.514;5.722;2023-07-30T13:57:46;21.60;59.60
78886;DHT22;68269;52.514;5.722;2023-07-30T14:00:15;21.60;59.50
78886;DHT22;68269;52.514;5.722;2023-07-30T14:02:45;21.50;59.40
78886;DHT22;68269;52.514;5.722;2023-07-30T14:05:14;21.50;59.40
78886;DHT22;68269;52.514;5.722;2023-07-30T14:07:44;21.40;59.40
78886;DHT22;68269;52.514;5.722;2023-07-30T14:10:16;21.40;59.40
78886;DHT22;68269;52.514;5.722;2023-07-30T14:12:45;21.40;59.20
78886;DHT22;68269;52.514;5.722;2023-07-30T14:15:15;21.30;59.30
78886;DHT22;68269;52.514;5.722;2023-07-30T14:17:44;21.30;59.20
78886;DHT22;68269;52.514;5.722;2023-07-30T14:20:14;21.30;59.20
78886;DHT22;68269;52.514;5.722;2023-07-30T14:22:43;21.40;59.10
78886;DHT22;68269;52.514;5.722;2023-07-30T14:25:12;21.70;58.90
78886;DHT22;68269;52.514;5.722;2023-07-30T14:27:44;21.90;58.60
78886;DHT22;68269;52.514;5.722;2023-07-30T14:30:13;22.00;58.40
78886;DHT22;68269;52.514;5.722;2023-07-30T14:32:43;22.10;58.20
78886;DHT22;68269;52.514;5.722;2023-07-30T14:35:12;22.30;58.00
78886;DHT22;68269;52.514;5.722;2023-07-30T14:37:41;22.30;58.00
78886;DHT22;68269;52.514;5.722;2023-07-30T14:40:11;22.30;57.90
78886;DHT22;68269;52.514;5.722;2023-07-30T14:42:41;22.20;58.00
78886;DHT22;68269;52.514;5.722;2023-07-30T14:45:12;22.20;58.00
78886;DHT22;68269;52.514;5.722;2023-07-30T14:47:42;22.10;58.00
78886;DHT22;68269;52.514;5.722;2023-07-30T14:50:11;22.10;58.10
78886;DHT22;68269;52.514;5.722;2023-07-30T14:52:40;22.00;58.10
78886;DHT22;68269;52.514;5.722;2023-07-30T14:55:10;22.10;58.00
78886;DHT22;68269;52.514;5.722;2023-07-30T14:57:40;22.10;58.00
78886;DHT22;68269;52.514;5.722;2023-07-30T15:00:13;22.10;58.00
78886;DHT22;68269;52.514;5.722;2023-07-30T15:02:43;22.00;58.00
78886;DHT22;68269;52.514;5.722;2023-07-30T15:05:12;22.10;57.90
78886;DHT22;68269;52.514;5.722;2023-07-30T15:07:42;22.30;57.70
78886;DHT22;68269;52.514;5.722;2023-07-30T15:10:11;22.50;57.40
78886;DHT22;68269;52.514;5.722;2023-07-30T15:12:42;22.60;57.20
78886;DHT22;68269;52.514;5.722;2023-07-30T15:15:14;22.70;57.20
78886;DHT22;68269;52.514;5.722;2023-07-30T15:17:43;22.80;57.00
78886;DHT22;68269;52.514;5.722;2023-07-30T15:20:13;22.80;57.00
78886;DHT22;68269;52.514;5.722;2023-07-30T15:22:42;22.90;56.90
78886;DHT22;68269;52.514;5.722;2023-07-30T15:25:11;23.10;56.80
78886;DHT22;68269;52.514;5.722;2023-07-30T15:27:41;23.30;56.60
78886;DHT22;68269;52.514;5.722;2023-07-30T15:30:10;23.20;56.60
78886;DHT22;68269;52.514;5.722;2023-07-30T15:32:44;23.00;56.90
78886;DHT22;68269;52.514;5.722;2023-07-30T15:35:13;22.90;56.90
78886;DHT22;68269;52.514;5.722;2023-07-30T15:37:43;23.00;56.90
78886;DHT22;68269;52.514;5.722;2023-07-30T15:40:12;23.20;56.60
78886;DHT22;68269;52.514;5.722;2023-07-30T15:42:42;23.50;56.30
78886;DHT22;68269;52.514;5.722;2023-07-30T15:45:11;23.60;56.10
78886;DHT22;68269;52.514;5.722;2023-07-30T15:47:44;23.40;56.20